createdAt,value
2022-09-11T00:00:57.424Z,12.02
2022-09-11T00:03:28.211Z,12.04
2022-09-11T00:05:54.862Z,12.08
2022-09-11T00:08:21.879Z,12.11
2022-09-11T00:10:49.427Z,12.14
2022-09-11T00:13:21.446Z,12.16
2022-09-11T00:15:50.728Z,12.21
2022-09-11T00:18:23.850Z,12.25
2022-09-11T00:20:53.843Z,12.28
2022-09-11T00:23:22.853Z,12.28
2022-09-11T00:25:50.180Z,12.30
2022-09-11T00:28:20.055Z,12.33
2022-09-11T00:30:57.068Z,12.36
2022-09-11T00:33:23.902Z,12.37
2022-09-11T00:35:59.590Z,12.40
2022-09-11T00:38:28.314Z,12.36
2022-09-11T00:40:58.389Z,12.36
2022-09-11T00:43:26.908Z,12.36
2022-09-11T00:46:01.881Z,12.35
2022-09-11T00:48:34.369Z,12.44
2022-09-11T00:51:03.922Z,12.45
2022-09-11T00:53:36.266Z,12.43
2022-09-11T00:56:07.805Z,12.42
2022-09-11T00:58:38.268Z,12.40
2022-09-11T01:01:05.301Z,12.40
2022-09-11T01:03:35.011Z,12.36
2022-09-11T01:06:02.866Z,12.33
2022-09-11T01:08:29.488Z,12.23
2022-09-11T01:11:24.132Z,12.29
2022-09-11T01:14:06.364Z,12.23
2022-09-11T01:16:33.026Z,12.19
2022-09-11T01:19:46.593Z,12.29
2022-09-11T01:22:44.391Z,12.27
2022-09-11T01:25:31.586Z,12.27
2022-09-11T01:28:01.049Z,12.27
2022-09-11T01:30:37.563Z,12.23
2022-09-11T01:33:28.219Z,12.27
2022-09-11T01:36:26.434Z,12.22
2022-09-11T01:38:57.838Z,12.22
2022-09-11T01:41:42.456Z,12.28
2022-09-11T01:44:16.636Z,12.29
2022-09-11T01:46:47.754Z,12.22
2022-09-11T01:49:35.876Z,12.29
2022-09-11T01:52:10.934Z,12.30
2022-09-11T01:54:51.256Z,12.26
2022-09-11T01:57:32.009Z,12.31
2022-09-11T02:00:02.170Z,12.32
2022-09-11T02:02:38.396Z,12.21
2022-09-11T02:05:21.043Z,12.29
2022-09-11T02:07:55.961Z,12.36
2022-09-11T02:10:29.248Z,12.36
2022-09-11T02:13:14.373Z,12.38
2022-09-11T02:15:53.804Z,12.38
2022-09-11T02:18:26.996Z,12.41
2022-09-11T02:20:54.123Z,12.43
2022-09-11T02:23:21.302Z,12.43
2022-09-11T02:25:48.560Z,12.45
2022-09-11T02:28:16.825Z,12.39
2022-09-11T02:30:44.008Z,12.48
2022-09-11T02:33:28.502Z,12.50
2022-09-11T02:36:19.192Z,12.50
2022-09-11T02:39:01.276Z,12.53
2022-09-11T02:41:39.759Z,12.57
2022-09-11T02:44:21.292Z,12.54
2022-09-11T02:46:54.021Z,12.53
2022-09-11T02:49:39.130Z,12.63
2022-09-11T02:52:21.673Z,12.65
2022-09-11T02:54:57.747Z,12.66
2022-09-11T02:57:37.013Z,12.68
2022-09-11T03:00:07.611Z,12.68
2022-09-11T03:02:38.885Z,12.70
2022-09-11T03:05:06.635Z,12.71
2022-09-11T03:07:33.582Z,12.74
2022-09-11T03:10:00.600Z,12.69
2022-09-11T03:12:28.597Z,12.79
2022-09-11T03:14:57.050Z,12.81
2022-09-11T03:17:25.432Z,12.83
2022-09-11T03:19:52.204Z,12.85
2022-09-11T03:22:19.243Z,12.85
2022-09-11T03:24:46.395Z,12.82
2022-09-11T03:27:13.231Z,12.87
2022-09-11T03:29:40.828Z,12.89
2022-09-11T03:32:07.799Z,12.89
2022-09-11T03:34:34.529Z,12.82
2022-09-11T03:37:02.208Z,12.75
2022-09-11T03:39:29.284Z,12.69
2022-09-11T03:41:58.395Z,12.63
2022-09-11T03:44:25.628Z,12.59
2022-09-11T03:46:53.028Z,12.56
2022-09-11T03:49:20.435Z,12.49
2022-09-11T03:51:47.898Z,12.41
2022-09-11T03:54:16.112Z,12.43
2022-09-11T03:56:44.111Z,12.40
2022-09-11T03:59:10.844Z,12.33
2022-09-11T04:01:38.283Z,12.35
2022-09-11T04:04:06.222Z,12.31
2022-09-11T04:06:33.498Z,12.24
2022-09-11T04:09:01.035Z,12.28
2022-09-11T04:11:28.685Z,12.28
2022-09-11T04:13:55.566Z,12.20
2022-09-11T04:16:23.418Z,12.23
2022-09-11T04:18:53.413Z,12.20
2022-09-11T04:21:20.291Z,12.17
2022-09-11T04:23:53.341Z,12.18
2022-09-11T04:26:22.371Z,12.13
2022-09-11T04:28:50.150Z,12.12
2022-09-11T04:31:18.664Z,12.09
2022-09-11T04:33:47.167Z,12.04
2022-09-11T04:36:18.427Z,12.08
2022-09-11T04:38:46.023Z,12.11
2022-09-11T04:41:14.561Z,12.07
2022-09-11T04:43:42.117Z,12.10
2022-09-11T04:46:14.169Z,12.03
2022-09-11T04:48:51.658Z,12.09
2022-09-11T04:51:25.420Z,12.08
2022-09-11T04:53:55.038Z,12.08
2022-09-11T04:56:21.747Z,12.03
2022-09-11T04:59:00.391Z,12.04
2022-09-11T05:01:30.149Z,12.04
2022-09-11T05:03:57.355Z,11.94
2022-09-11T05:06:24.055Z,12.01
2022-09-11T05:08:52.985Z,11.92
2022-09-11T05:11:20.974Z,11.99
2022-09-11T05:13:48.579Z,12.00
2022-09-11T05:16:17.534Z,12.00
2022-09-11T05:18:51.962Z,11.98
2022-09-11T05:21:22.711Z,11.95
2022-09-11T05:23:51.618Z,11.88
2022-09-11T05:26:26.830Z,11.84
2022-09-11T05:28:55.668Z,11.85
2022-09-11T05:31:23.522Z,11.85
2022-09-11T05:33:50.286Z,11.85
2022-09-11T05:36:17.894Z,11.80
2022-09-11T05:38:45.404Z,11.82
2022-09-11T05:41:13.729Z,11.90
2022-09-11T05:43:42.133Z,11.97
2022-09-11T05:46:13.224Z,12.00
2022-09-11T05:48:40.919Z,12.05
2022-09-11T05:51:15.935Z,12.04
2022-09-11T05:53:44.456Z,12.07
2022-09-11T05:56:20.028Z,12.07
2022-09-11T05:58:48.955Z,12.09
2022-09-11T06:01:18.297Z,12.08
2022-09-11T06:03:49.492Z,12.08
2022-09-11T06:06:18.526Z,12.07
2022-09-11T06:08:47.424Z,12.07
2022-09-11T06:11:16.922Z,12.07
2022-09-11T06:13:46.568Z,12.07
2022-09-11T06:16:18.262Z,12.00
2022-09-11T06:18:49.328Z,12.09
2022-09-11T06:21:21.943Z,12.11
2022-09-11T06:23:50.343Z,12.14
2022-09-11T06:26:26.253Z,12.15
2022-09-11T06:28:54.248Z,12.19
2022-09-11T06:31:24.780Z,12.20
2022-09-11T06:33:52.018Z,12.26
2022-09-11T06:36:21.260Z,12.27
2022-09-11T06:38:54.149Z,12.29
2022-09-11T06:41:24.502Z,12.33
2022-09-11T06:43:53.241Z,12.30
2022-09-11T06:46:22.732Z,12.34
2022-09-11T06:48:51.104Z,12.37
2022-09-11T06:51:21.845Z,12.39
2022-09-11T06:53:55.249Z,12.45
2022-09-11T06:56:22.485Z,12.38
2022-09-11T06:58:50.462Z,12.48
2022-09-11T07:01:19.975Z,12.50
2022-09-11T07:03:50.238Z,12.56
2022-09-11T07:06:22.503Z,12.63
2022-09-11T07:08:55.279Z,12.68
2022-09-11T07:11:22.173Z,12.70
2022-09-11T07:13:49.379Z,12.71
2022-09-11T07:16:16.670Z,12.73
2022-09-11T07:18:45.599Z,12.74
2022-09-11T07:21:16.029Z,12.77
2022-09-11T07:23:57.181Z,12.79
2022-09-11T07:26:26.462Z,12.86
2022-09-11T07:28:56.095Z,12.94
2022-09-11T07:31:26.801Z,12.98
2022-09-11T07:33:55.058Z,13.04
2022-09-11T07:36:26.959Z,13.08
2022-09-11T07:38:55.056Z,13.08
2022-09-11T07:41:23.971Z,13.03
2022-09-11T07:43:57.335Z,13.11
2022-09-11T07:46:26.976Z,13.09
2022-09-11T07:48:57.447Z,13.04
2022-09-11T07:51:26.818Z,13.05
2022-09-11T07:53:56.604Z,13.03
2022-09-11T07:56:26.119Z,12.94
2022-09-11T07:58:55.295Z,13.00
2022-09-11T08:01:27.830Z,13.02
2022-09-11T08:04:03.825Z,13.03
2022-09-11T08:06:32.965Z,13.05
2022-09-11T08:09:06.070Z,13.07
2022-09-11T08:11:40.552Z,13.19
2022-09-11T08:14:07.949Z,13.21
2022-09-11T08:16:37.525Z,13.17
2022-09-11T08:19:05.513Z,13.11
2022-09-11T08:21:32.845Z,13.13
2022-09-11T08:23:59.790Z,13.14
2022-09-11T08:26:30.327Z,13.10
2022-09-11T08:29:00.014Z,13.12
2022-09-11T08:31:27.991Z,13.10
2022-09-11T08:33:56.139Z,13.15
2022-09-11T08:36:24.316Z,13.11
2022-09-11T08:38:52.630Z,13.23
2022-09-11T08:41:28.558Z,13.21
2022-09-11T08:44:27.360Z,13.32
2022-09-11T08:47:00.465Z,13.41
2022-09-11T08:49:35.648Z,13.43
2022-09-11T08:52:05.919Z,13.45
2022-09-11T08:54:37.979Z,13.44
2022-09-11T08:57:16.728Z,13.46
2022-09-11T09:00:04.885Z,13.52
2022-09-11T09:02:52.163Z,13.53
2022-09-11T09:05:45.984Z,13.54
2022-09-11T09:08:25.402Z,13.59
2022-09-11T09:11:13.673Z,13.59
2022-09-11T09:13:58.546Z,13.53
2022-09-11T09:16:38.990Z,13.59
2022-09-11T09:19:13.043Z,13.55
2022-09-11T09:22:03.171Z,13.62
2022-09-11T09:24:40.323Z,13.66
2022-09-11T09:27:07.562Z,13.63
2022-09-11T09:29:38.679Z,13.62
2022-09-11T09:32:14.825Z,13.61
2022-09-11T09:34:46.097Z,13.60
2022-09-11T09:37:22.165Z,13.54
2022-09-11T09:39:51.448Z,13.63
2022-09-11T09:42:28.290Z,13.57
2022-09-11T09:45:16.845Z,13.65
2022-09-11T09:47:47.894Z,13.67
2022-09-11T09:50:21.346Z,13.78
2022-09-11T09:52:49.823Z,13.94
2022-09-11T09:55:18.893Z,13.95
2022-09-11T09:57:45.638Z,13.95
2022-09-11T10:00:17.431Z,14.09
2022-09-11T10:02:49.231Z,14.34
2022-09-11T10:05:28.747Z,14.51
2022-09-11T10:08:01.757Z,14.65
2022-09-11T10:10:40.778Z,14.75
2022-09-11T10:13:21.275Z,14.76
2022-09-11T10:15:49.909Z,14.66
2022-09-11T10:18:26.175Z,14.62
2022-09-11T10:20:52.958Z,14.61
2022-09-11T10:23:25.915Z,14.66
2022-09-11T10:25:53.339Z,14.75
2022-09-11T10:28:32.970Z,14.74
2022-09-11T10:31:02.980Z,14.85
2022-09-11T10:33:33.633Z,14.83
2022-09-11T10:36:04.343Z,14.80
2022-09-11T10:38:36.939Z,14.85
2022-09-11T10:41:20.975Z,14.77
2022-09-11T10:44:05.420Z,14.76
2022-09-11T10:46:41.139Z,14.72
2022-09-11T10:49:11.919Z,14.69
2022-09-11T10:51:45.455Z,14.64
2022-09-11T10:54:27.099Z,14.58
2022-09-11T10:57:00.221Z,14.56
2022-09-11T10:59:56.186Z,14.58
2022-09-11T11:02:35.264Z,14.66
2022-09-11T11:05:09.330Z,14.64
2022-09-11T11:07:56.178Z,14.73
2022-09-11T11:10:45.829Z,14.73
2022-09-11T11:13:49.387Z,14.80
2022-09-11T11:16:35.036Z,14.92
2022-09-11T11:19:27.738Z,15.02
2022-09-11T11:22:00.716Z,15.11
2022-09-11T11:24:55.273Z,15.13
2022-09-11T11:27:34.877Z,15.15
2022-09-11T11:30:15.131Z,15.26
2022-09-11T11:32:48.293Z,15.31
2022-09-11T11:35:32.095Z,15.37
2022-09-11T11:38:20.157Z,15.53
2022-09-11T11:40:51.312Z,15.57
2022-09-11T11:43:22.299Z,15.56
2022-09-11T11:46:23.428Z,15.63
2022-09-11T11:49:01.854Z,15.71
2022-09-11T11:51:44.196Z,15.66
2022-09-11T11:54:20.364Z,15.70
2022-09-11T11:57:10.489Z,15.73
2022-09-11T11:59:58.310Z,15.68
2022-09-11T12:02:31.138Z,15.66
2022-09-11T12:05:03.517Z,15.48
2022-09-11T12:07:36.671Z,15.46
2022-09-11T12:10:06.680Z,15.36
2022-09-11T12:12:45.429Z,15.22
2022-09-11T12:15:21.986Z,15.16
2022-09-11T12:18:02.639Z,15.17
2022-09-11T12:20:43.003Z,15.12
2022-09-11T12:23:46.987Z,15.05
2022-09-11T12:26:27.560Z,14.98
2022-09-11T12:29:29.752Z,14.94
2022-09-11T12:31:59.856Z,14.88
2022-09-11T12:34:46.852Z,14.82
2022-09-11T12:37:33.088Z,14.80
2022-09-11T12:40:18.750Z,14.78
2022-09-11T12:42:48.422Z,14.77
2022-09-11T12:45:31.995Z,14.78
2022-09-11T12:48:22.936Z,14.85
2022-09-11T12:50:56.747Z,14.92
2022-09-11T12:53:36.482Z,14.97
2022-09-11T12:56:16.304Z,15.02
2022-09-11T12:58:47.736Z,14.98
2022-09-11T13:01:20.465Z,15.07
2022-09-11T13:04:09.137Z,15.12
2022-09-11T13:06:51.653Z,15.21
2022-09-11T13:09:41.624Z,15.27
2022-09-11T13:12:23.646Z,15.33
2022-09-11T13:14:53.897Z,15.30
2022-09-11T13:17:30.473Z,15.38
2022-09-11T13:20:09.950Z,15.37
2022-09-11T13:22:37.574Z,15.33
2022-09-11T13:25:19.952Z,15.25
2022-09-11T13:27:50.758Z,15.23
2022-09-11T13:30:21.741Z,15.20
2022-09-11T13:33:02.009Z,15.17
2022-09-11T13:35:29.977Z,15.18
2022-09-11T13:38:13.814Z,15.15
2022-09-11T13:40:48.929Z,15.12
2022-09-11T13:43:23.830Z,15.09
2022-09-11T13:46:10.421Z,15.02
2022-09-11T13:48:37.436Z,15.04
2022-09-11T13:51:06.166Z,14.95
2022-09-11T13:53:35.786Z,14.91
2022-09-11T13:56:02.795Z,14.85
2022-09-11T13:58:35.650Z,14.79
2022-09-11T14:01:12.752Z,14.69
2022-09-11T14:03:46.008Z,14.75
2022-09-11T14:06:18.938Z,14.70
2022-09-11T14:08:51.811Z,14.62
2022-09-11T14:11:26.254Z,14.60
2022-09-11T14:13:58.656Z,14.64
2022-09-11T14:16:33.510Z,14.65
2022-09-11T14:19:03.898Z,14.65
2022-09-11T14:21:36.855Z,14.56
2022-09-11T14:24:24.109Z,14.61
2022-09-11T14:26:50.779Z,14.59
2022-09-11T14:29:24.754Z,14.57
2022-09-11T14:31:53.024Z,14.56
2022-09-11T14:34:23.281Z,14.51
2022-09-11T14:36:57.534Z,14.46
2022-09-11T14:39:33.091Z,14.46
2022-09-11T14:42:01.150Z,14.45
2022-09-11T14:44:29.015Z,14.38
2022-09-11T14:46:57.755Z,14.45
2022-09-11T14:49:24.544Z,14.47
2022-09-11T14:51:58.495Z,14.48
2022-09-11T14:54:31.214Z,14.49
2022-09-11T14:57:01.051Z,14.44
2022-09-11T14:59:30.738Z,14.44
2022-09-11T15:01:58.818Z,14.51
2022-09-11T15:04:26.048Z,14.52
2022-09-11T15:06:55.549Z,14.48
2022-09-11T15:09:25.278Z,14.44
2022-09-11T15:11:53.085Z,14.51
2022-09-11T15:14:44.619Z,14.50
2022-09-11T15:17:11.956Z,14.50
2022-09-11T15:19:39.063Z,14.51
2022-09-11T15:22:06.610Z,14.52
2022-09-11T15:24:34.855Z,14.52
2022-09-11T15:27:01.547Z,14.44
2022-09-11T15:29:31.514Z,14.49
2022-09-11T15:32:01.984Z,14.46
2022-09-11T15:34:32.499Z,14.44
2022-09-11T15:37:00.263Z,14.43
2022-09-11T15:39:27.973Z,14.40
2022-09-11T15:41:55.756Z,14.35
2022-09-11T15:44:25.356Z,14.34
2022-09-11T15:46:54.342Z,14.33
2022-09-11T15:49:23.258Z,14.29
2022-09-11T15:51:51.528Z,14.23
2022-09-11T15:54:19.236Z,14.22
2022-09-11T15:56:46.818Z,14.18
2022-09-11T15:59:17.702Z,14.15
2022-09-11T16:01:44.976Z,14.04
2022-09-11T16:04:16.548Z,14.09
2022-09-11T16:06:45.757Z,14.05
2022-09-11T16:09:24.243Z,13.97
2022-09-11T16:11:51.631Z,13.88
2022-09-11T16:14:21.259Z,13.72
2022-09-11T16:16:48.383Z,13.73
2022-09-11T16:19:20.819Z,13.67
2022-09-11T16:21:48.569Z,13.62
2022-09-11T16:24:16.209Z,13.50
2022-09-11T16:26:44.234Z,13.52
2022-09-11T16:29:14.740Z,13.44
2022-09-11T16:31:42.262Z,13.49
2022-09-11T16:34:09.443Z,13.39
2022-09-11T16:36:38.797Z,13.45
2022-09-11T16:39:11.068Z,13.40
2022-09-11T16:41:38.569Z,13.32
2022-09-11T16:44:07.328Z,13.34
2022-09-11T16:46:34.616Z,13.30
2022-09-11T16:49:02.245Z,13.26
2022-09-11T16:51:29.709Z,13.24
2022-09-11T16:53:57.049Z,13.23
2022-09-11T16:56:25.877Z,13.23
2022-09-11T16:58:54.263Z,13.25
2022-09-11T17:01:23.863Z,13.27
2022-09-11T17:03:52.838Z,13.31
2022-09-11T17:06:20.844Z,13.32
2022-09-11T17:08:50.715Z,13.33
2022-09-11T17:11:20.657Z,13.35
2022-09-11T17:13:48.602Z,13.36
2022-09-11T17:16:18.793Z,13.26
2022-09-11T17:18:54.189Z,13.22
2022-09-11T17:21:25.416Z,13.25
2022-09-11T17:23:54.620Z,13.19
2022-09-11T17:26:22.165Z,13.08
2022-09-11T17:28:50.577Z,13.11
2022-09-11T17:31:19.553Z,13.09
2022-09-11T17:33:48.157Z,13.01
2022-09-11T17:36:17.656Z,13.05
2022-09-11T17:38:46.012Z,13.06
2022-09-11T17:41:13.161Z,13.01
2022-09-11T17:43:40.714Z,12.96
2022-09-11T17:46:12.070Z,12.90
2022-09-11T17:48:39.782Z,12.88
2022-09-11T17:51:08.082Z,12.83
2022-09-11T17:53:38.587Z,12.79
2022-09-11T17:56:08.014Z,12.76
2022-09-11T17:58:35.288Z,12.67
2022-09-11T18:01:02.863Z,12.72
2022-09-11T18:03:31.756Z,12.72
2022-09-11T18:05:59.427Z,12.70
2022-09-11T18:08:27.357Z,12.66
2022-09-11T18:11:00.168Z,12.67
2022-09-11T18:13:29.051Z,12.67
2022-09-11T18:15:56.292Z,12.66
2022-09-11T18:18:23.739Z,12.58
2022-09-11T18:20:53.983Z,12.64
2022-09-11T18:23:23.224Z,12.60
2022-09-11T18:25:51.458Z,12.54
2022-09-11T18:28:20.148Z,12.52
2022-09-11T18:30:47.493Z,12.51
2022-09-11T18:33:16.741Z,12.49
2022-09-11T18:35:44.325Z,12.49
2022-09-11T18:38:11.417Z,12.50
2022-09-11T18:40:39.088Z,12.53
2022-09-11T18:43:08.793Z,12.55
2022-09-11T18:45:36.476Z,12.56
2022-09-11T18:48:04.678Z,12.55
2022-09-11T18:50:31.549Z,12.45
2022-09-11T18:53:00.167Z,12.50
2022-09-11T18:55:29.044Z,12.48
2022-09-11T18:57:56.250Z,12.47
2022-09-11T19:00:23.323Z,12.44
2022-09-11T19:02:53.262Z,12.43
2022-09-11T19:05:21.243Z,12.39
2022-09-11T19:07:48.403Z,12.43
2022-09-11T19:10:15.181Z,12.44
2022-09-11T19:12:42.049Z,12.44
2022-09-11T19:15:09.934Z,12.41
2022-09-11T19:17:37.309Z,12.43
2022-09-11T19:20:08.295Z,12.44
2022-09-11T19:22:35.695Z,12.44
2022-09-11T19:25:02.429Z,12.45
2022-09-11T19:27:31.630Z,12.43
2022-09-11T19:29:59.947Z,12.42
2022-09-11T19:32:28.454Z,12.37
2022-09-11T19:34:55.479Z,12.40
2022-09-11T19:37:24.269Z,12.40
2022-09-11T19:39:51.932Z,12.39
2022-09-11T19:42:19.007Z,12.39
2022-09-11T19:44:46.228Z,12.39
2022-09-11T19:47:12.936Z,12.34
2022-09-11T19:49:39.641Z,12.27
2022-09-11T19:52:08.050Z,12.30
2022-09-11T19:54:35.467Z,12.29
2022-09-11T19:57:02.566Z,12.27
2022-09-11T19:59:29.556Z,12.26
2022-09-11T20:01:56.499Z,12.25
2022-09-11T20:04:24.211Z,12.26
2022-09-11T20:09:32.853Z,12.27
2022-09-11T20:12:01.165Z,12.16
2022-09-11T20:14:29.564Z,12.30
2022-09-11T20:16:56.215Z,12.26
2022-09-11T20:19:23.358Z,12.32
2022-09-11T20:21:50.046Z,12.26
2022-09-11T20:24:17.121Z,12.33
2022-09-11T20:26:44.082Z,12.34
2022-09-11T20:29:14.009Z,12.26
2022-09-11T20:31:47.374Z,12.34
2022-09-11T20:34:19.713Z,12.35
2022-09-11T20:36:47.163Z,12.27
2022-09-11T20:39:15.273Z,12.27
2022-09-11T20:41:43.334Z,12.32
2022-09-11T20:44:11.458Z,12.33
2022-09-11T20:46:38.242Z,12.31
2022-09-11T20:49:05.407Z,12.35
2022-09-11T20:54:00.894Z,12.36
2022-09-11T20:56:28.508Z,12.29
2022-09-11T20:58:56.392Z,12.36
2022-09-11T21:01:34.196Z,12.36
2022-09-11T21:04:03.590Z,12.33
2022-09-11T21:06:32.417Z,12.38
2022-09-11T21:09:06.888Z,12.33
2022-09-11T21:11:35.186Z,12.40
2022-09-11T21:14:02.037Z,12.41
2022-09-11T21:16:28.810Z,12.41
2022-09-11T21:18:58.004Z,12.43
2022-09-11T21:21:26.989Z,12.45
2022-09-11T21:23:55.230Z,12.47
2022-09-11T21:26:22.880Z,12.43
2022-09-11T21:28:49.476Z,12.41
2022-09-11T21:31:16.314Z,12.48
2022-09-11T21:33:43.410Z,12.48
2022-09-11T21:36:10.132Z,12.48
2022-09-11T21:38:37.041Z,12.49
2022-09-11T21:41:06.816Z,12.44
2022-09-11T21:43:33.570Z,12.52
2022-09-11T21:46:00.442Z,12.51
2022-09-11T21:48:31.310Z,12.51
2022-09-11T21:51:13.014Z,12.52
2022-09-11T21:53:42.785Z,12.54
2022-09-11T21:56:29.512Z,12.48
2022-09-11T21:58:56.814Z,12.49
2022-09-11T22:01:25.764Z,12.56
2022-09-11T22:03:54.260Z,12.57
2022-09-11T22:06:24.665Z,12.59
2022-09-11T22:08:52.397Z,12.53
2022-09-11T22:11:20.178Z,12.62
2022-09-11T22:13:47.818Z,12.64
2022-09-11T22:16:18.328Z,12.65
2022-09-11T22:18:50.031Z,12.65
2022-09-11T22:21:16.968Z,12.66
2022-09-11T22:23:44.258Z,12.67
2022-09-11T22:26:18.887Z,12.62
2022-09-11T22:28:46.157Z,12.70
2022-09-11T22:31:19.100Z,12.71
2022-09-11T22:33:46.069Z,12.72
2022-09-11T22:36:23.532Z,12.70
2022-09-11T22:38:50.790Z,12.72
2022-09-11T22:41:18.806Z,12.74
2022-09-11T22:43:47.483Z,12.75
2022-09-11T22:46:15.278Z,12.76
2022-09-11T22:48:42.566Z,12.78
2022-09-11T22:51:10.090Z,12.78
2022-09-11T22:53:39.501Z,12.79
2022-09-11T22:56:07.066Z,12.81
2022-09-11T22:58:33.970Z,12.82
2022-09-11T23:01:03.497Z,12.83
2022-09-11T23:03:30.821Z,12.77
2022-09-11T23:06:17.585Z,12.86
2022-09-11T23:08:46.048Z,12.87
2022-09-11T23:11:17.086Z,12.88
2022-09-11T23:13:44.385Z,12.88
2022-09-11T23:16:18.763Z,12.90
2022-09-11T23:18:46.269Z,12.92
2022-09-11T23:21:13.159Z,12.91
2022-09-11T23:23:44.781Z,12.91
2022-09-11T23:26:13.581Z,12.91
2022-09-11T23:28:40.310Z,12.93
2022-09-11T23:31:16.254Z,12.87
2022-09-11T23:33:43.326Z,12.95
2022-09-11T23:36:11.927Z,12.94
2022-09-11T23:38:38.627Z,12.95
2022-09-11T23:41:05.955Z,12.96
2022-09-11T23:43:32.702Z,12.96
2022-09-11T23:45:59.327Z,12.96
2022-09-11T23:48:26.256Z,12.98
2022-09-11T23:50:52.868Z,12.96
2022-09-11T23:53:19.511Z,13.00
2022-09-11T23:55:48.294Z,13.00
2022-09-11T23:58:15.275Z,13.01
